sensor_id;sensor_type;location;lat;lon;timestamp;P1;durP1;ratioP1;P2;durP2;ratioP2
1991;SDS011;997;48.448;8.924;2022-11-03T04:02:44;7.33;;;5.80;;
1991;SDS011;997;48.448;8.924;2022-11-03T04:05:10;4.70;;;4.20;;
1991;SDS011;997;48.448;8.924;2022-11-03T04:07:35;6.53;;;5.27;;
1991;SDS011;997;48.448;8.924;2022-11-03T04:10:14;6.97;;;4.67;;
1991;SDS011;997;48.448;8.924;2022-11-03T04:12:43;16.47;;;4.30;;
1991;SDS011;997;48.448;8.924;2022-11-03T04:15:28;5.53;;;5.07;;
1991;SDS011;997;48.448;8.924;2022-11-03T04:18:13;5.40;;;4.90;;
1991;SDS011;997;48.448;8.924;2022-11-03T04:20:57;4.97;;;4.33;;
1991;SDS011;997;48.448;8.924;2022-11-03T04:23:41;4.77;;;4.40;;
1991;SDS011;997;48.448;8.924;2022-11-03T04:26:14;11.00;;;5.20;;
1991;SDS011;997;48.448;8.924;2022-11-03T04:28:42;5.10;;;4.70;;
1991;SDS011;997;48.448;8.924;2022-11-03T04:31:09;9.07;;;5.30;;
1991;SDS011;997;48.448;8.924;2022-11-03T04:33:38;7.60;;;5.03;;
1991;SDS011;997;48.448;8.924;2022-11-03T04:36:24;4.97;;;4.57;;
1991;SDS011;997;48.448;8.924;2022-11-03T04:38:50;10.90;;;5.00;;
1991;SDS011;997;48.448;8.924;2022-11-03T04:41:17;5.10;;;4.70;;
1991;SDS011;997;48.448;8.924;2022-11-03T04:43:46;4.97;;;4.57;;
1991;SDS011;997;48.448;8.924;2022-11-03T04:46:18;5.73;;;5.20;;
1991;SDS011;997;48.448;8.924;2022-11-03T04:48:52;6.17;;;4.27;;
1991;SDS011;997;48.448;8.924;2022-11-03T04:51:21;5.20;;;4.43;;
1991;SDS011;997;48.448;8.924;2022-11-03T04:53:53;3.80;;;3.50;;
1991;SDS011;997;48.448;8.924;2022-11-03T04:56:21;4.17;;;3.87;;
1991;SDS011;997;48.448;8.924;2022-11-03T04:58:48;4.30;;;3.90;;
1991;SDS011;997;48.448;8.924;2022-11-03T05:01:16;4.60;;;4.30;;
1991;SDS011;997;48.448;8.924;2022-11-03T05:03:49;4.53;;;4.23;;
1991;SDS011;997;48.448;8.924;2022-11-03T05:06:27;3.70;;;3.40;;
1991;SDS011;997;48.448;8.924;2022-11-03T05:08:57;4.70;;;4.30;;
1991;SDS011;997;48.448;8.924;2022-11-03T05:14:03;4.10;;;3.80;;
1991;SDS011;997;48.448;8.924;2022-11-03T05:16:38;4.13;;;3.83;;
1991;SDS011;997;48.448;8.924;2022-11-03T05:19:04;4.73;;;4.33;;
1991;SDS011;997;48.448;8.924;2022-11-03T05:21:42;4.80;;;3.60;;
1991;SDS011;997;48.448;8.924;2022-11-03T05:24:12;14.20;;;5.20;;
1991;SDS011;997;48.448;8.924;2022-11-03T05:26:38;5.80;;;4.00;;
1991;SDS011;997;48.448;8.924;2022-11-03T05:31:33;3.60;;;3.40;;
1991;SDS011;997;48.448;8.924;2022-11-03T05:34:01;3.97;;;3.67;;
1991;SDS011;997;48.448;8.924;2022-11-03T05:36:36;13.00;;;4.33;;
1991;SDS011;997;48.448;8.924;2022-11-03T05:39:24;4.20;;;3.90;;
1991;SDS011;997;48.448;8.924;2022-11-03T05:41:55;4.87;;;4.43;;
1991;SDS011;997;48.448;8.924;2022-11-03T05:44:24;5.43;;;4.33;;
1991;SDS011;997;48.448;8.924;2022-11-03T05:47:01;5.93;;;4.60;;
1991;SDS011;997;48.448;8.924;2022-11-03T05:49:27;4.47;;;4.17;;
1991;SDS011;997;48.448;8.924;2022-11-03T05:51:54;4.67;;;4.27;;
1991;SDS011;997;48.448;8.924;2022-11-03T05:54:21;4.27;;;3.87;;
1991;SDS011;997;48.448;8.924;2022-11-03T05:56:50;5.07;;;4.67;;
1991;SDS011;997;48.448;8.924;2022-11-03T05:59:18;3.90;;;3.60;;
1991;SDS011;997;48.448;8.924;2022-11-03T06:01:47;4.67;;;4.37;;
1991;SDS011;997;48.448;8.924;2022-11-03T06:06:47;4.20;;;3.90;;
1991;SDS011;997;48.448;8.924;2022-11-03T06:09:21;5.77;;;4.53;;
1991;SDS011;997;48.448;8.924;2022-11-03T06:11:50;6.10;;;4.83;;
1991;SDS011;997;48.448;8.924;2022-11-03T06:14:19;4.90;;;4.50;;
1991;SDS011;997;48.448;8.924;2022-11-03T06:16:46;5.03;;;4.63;;
1991;SDS011;997;48.448;8.924;2022-11-03T06:22:01;4.80;;;4.37;;
1991;SDS011;997;48.448;8.924;2022-11-03T06:24:35;5.60;;;5.00;;
1991;SDS011;997;48.448;8.924;2022-11-03T06:27:01;8.50;;;6.60;;
1991;SDS011;997;48.448;8.924;2022-11-03T06:29:27;7.60;;;6.90;;
1991;SDS011;997;48.448;8.924;2022-11-03T06:31:56;10.40;;;9.40;;
1991;SDS011;997;48.448;8.924;2022-11-03T06:37:18;8.83;;;8.00;;
1991;SDS011;997;48.448;8.924;2022-11-03T06:39:50;10.07;;;8.80;;
1991;SDS011;997;48.448;8.924;2022-11-03T06:42:18;8.10;;;7.40;;
1991;SDS011;997;48.448;8.924;2022-11-03T06:44:46;7.20;;;6.60;;
1991;SDS011;997;48.448;8.924;2022-11-03T06:47:17;8.00;;;5.57;;
1991;SDS011;997;48.448;8.924;2022-11-03T06:49:55;8.40;;;6.07;;
1991;SDS011;997;48.448;8.924;2022-11-03T06:52:29;11.80;;;5.57;;
1991;SDS011;997;48.448;8.924;2022-11-03T06:55:07;9.33;;;5.90;;
1991;SDS011;997;48.448;8.924;2022-11-03T06:57:46;8.83;;;5.53;;
1991;SDS011;997;48.448;8.924;2022-11-03T07:05:46;4.60;;;4.30;;
1991;SDS011;997;48.448;8.924;2022-11-03T07:10:46;5.73;;;5.13;;
1991;SDS011;997;48.448;8.924;2022-11-03T07:13:13;6.70;;;5.50;;
1991;SDS011;997;48.448;8.924;2022-11-03T07:15:42;6.40;;;5.90;;
1991;SDS011;997;48.448;8.924;2022-11-03T07:18:51;7.00;;;4.97;;
1991;SDS011;997;48.448;8.924;2022-11-03T07:21:01;5.53;;;5.07;;
1991;SDS011;997;48.448;8.924;2022-11-03T07:23:46;6.70;;;5.77;;
1991;SDS011;997;48.448;8.924;2022-11-03T07:26:13;6.60;;;6.00;;
1991;SDS011;997;48.448;8.924;2022-11-03T07:28:38;6.00;;;5.50;;
1991;SDS011;997;48.448;8.924;2022-11-03T07:31:21;5.50;;;5.10;;
1991;SDS011;997;48.448;8.924;2022-11-03T07:33:49;6.70;;;6.10;;
1991;SDS011;997;48.448;8.924;2022-11-03T07:36:19;6.70;;;6.20;;
1991;SDS011;997;48.448;8.924;2022-11-03T07:38:48;6.40;;;5.90;;
1991;SDS011;997;48.448;8.924;2022-11-03T07:41:20;6.03;;;5.53;;
1991;SDS011;997;48.448;8.924;2022-11-03T07:43:49;6.27;;;5.63;;
1991;SDS011;997;48.448;8.924;2022-11-03T07:46:19;6.10;;;5.53;;
1991;SDS011;997;48.448;8.924;2022-11-03T07:48:47;5.93;;;5.43;;
1991;SDS011;997;48.448;8.924;2022-11-03T07:51:14;5.57;;;5.10;;
1991;SDS011;997;48.448;8.924;2022-11-03T07:54:39;5.23;;;4.73;;
1991;SDS011;997;48.448;8.924;2022-11-03T07:56:44;5.13;;;4.73;;
1991;SDS011;997;48.448;8.924;2022-11-03T07:59:32;6.07;;;4.80;;
1991;SDS011;997;48.448;8.924;2022-11-03T08:02:01;5.57;;;5.07;;
1991;SDS011;997;48.448;8.924;2022-11-03T08:04:35;6.30;;;5.70;;
1991;SDS011;997;48.448;8.924;2022-11-03T08:07:01;5.10;;;4.70;;
1991;SDS011;997;48.448;8.924;2022-11-03T08:09:27;8.10;;;7.33;;
1991;SDS011;997;48.448;8.924;2022-11-03T08:11:53;9.30;;;7.97;;
1991;SDS011;997;48.448;8.924;2022-11-03T08:14:18;10.30;;;9.03;;
1991;SDS011;997;48.448;8.924;2022-11-03T08:16:44;9.20;;;6.53;;
1991;SDS011;997;48.448;8.924;2022-11-03T08:19:10;7.00;;;6.30;;
1991;SDS011;997;48.448;8.924;2022-11-03T08:21:36;7.33;;;6.27;;
1991;SDS011;997;48.448;8.924;2022-11-03T08:24:01;5.80;;;5.33;;
1991;SDS011;997;48.448;8.924;2022-11-03T08:26:28;5.57;;;5.17;;
1991;SDS011;997;48.448;8.924;2022-11-03T08:28:53;7.93;;;7.20;;
1991;SDS011;997;48.448;8.924;2022-11-03T08:31:19;7.07;;;6.57;;
1991;SDS011;997;48.448;8.924;2022-11-03T08:33:45;5.63;;;5.13;;
1991;SDS011;997;48.448;8.924;2022-11-03T08:36:11;7.60;;;6.90;;
1991;SDS011;997;48.448;8.924;2022-11-03T08:38:37;6.00;;;5.40;;
1991;SDS011;997;48.448;8.924;2022-11-03T08:41:02;5.50;;;4.67;;
1991;SDS011;997;48.448;8.924;2022-11-03T08:43:28;5.63;;;5.17;;
1991;SDS011;997;48.448;8.924;2022-11-03T08:45:54;5.73;;;5.23;;
1991;SDS011;997;48.448;8.924;2022-11-03T08:48:20;4.37;;;4.03;;
1991;SDS011;997;48.448;8.924;2022-11-03T08:50:53;6.27;;;5.77;;
1991;SDS011;997;48.448;8.924;2022-11-03T08:53:20;6.83;;;4.70;;
1991;SDS011;997;48.448;8.924;2022-11-03T08:55:49;5.60;;;5.10;;
1991;SDS011;997;48.448;8.924;2022-11-03T08:58:16;8.50;;;5.00;;
1991;SDS011;997;48.448;8.924;2022-11-03T09:00:41;5.30;;;4.80;;
1991;SDS011;997;48.448;8.924;2022-11-03T09:03:07;6.50;;;4.93;;
1991;SDS011;997;48.448;8.924;2022-11-03T09:05:33;5.70;;;5.20;;
1991;SDS011;997;48.448;8.924;2022-11-03T09:07:58;6.80;;;5.60;;
1991;SDS011;997;48.448;8.924;2022-11-03T09:10:24;5.53;;;4.90;;
1991;SDS011;997;48.448;8.924;2022-11-03T09:12:51;6.17;;;5.67;;
1991;SDS011;997;48.448;8.924;2022-11-03T09:15:17;7.10;;;6.30;;
1991;SDS011;997;48.448;8.924;2022-11-03T09:17:42;11.00;;;6.37;;
1991;SDS011;997;48.448;8.924;2022-11-03T09:20:08;6.87;;;6.27;;
1991;SDS011;997;48.448;8.924;2022-11-03T09:22:35;7.87;;;7.17;;
1991;SDS011;997;48.448;8.924;2022-11-03T09:25:00;8.93;;;7.60;;
1991;SDS011;997;48.448;8.924;2022-11-03T09:27:26;7.20;;;6.27;;
1991;SDS011;997;48.448;8.924;2022-11-03T09:29:52;11.13;;;5.97;;
1991;SDS011;997;48.448;8.924;2022-11-03T09:32:18;6.93;;;6.33;;
1991;SDS011;997;48.448;8.924;2022-11-03T09:34:43;7.10;;;6.33;;
1991;SDS011;997;48.448;8.924;2022-11-03T09:37:09;6.50;;;6.00;;
1991;SDS011;997;48.448;8.924;2022-11-03T09:39:35;7.40;;;6.03;;
1991;SDS011;997;48.448;8.924;2022-11-03T09:42:01;6.60;;;6.00;;
1991;SDS011;997;48.448;8.924;2022-11-03T09:44:29;6.70;;;5.93;;
1991;SDS011;997;48.448;8.924;2022-11-03T09:46:58;7.27;;;5.83;;
1991;SDS011;997;48.448;8.924;2022-11-03T09:49:23;8.27;;;6.77;;
1991;SDS011;997;48.448;8.924;2022-11-03T09:51:50;10.80;;;8.53;;
1991;SDS011;997;48.448;8.924;2022-11-03T09:54:18;6.37;;;5.77;;
1991;SDS011;997;48.448;8.924;2022-11-03T09:56:43;6.40;;;5.90;;
1991;SDS011;997;48.448;8.924;2022-11-03T09:59:15;8.57;;;6.27;;
1991;SDS011;997;48.448;8.924;2022-11-03T10:01:45;5.87;;;5.37;;
1991;SDS011;997;48.448;8.924;2022-11-03T10:04:17;6.10;;;5.60;;
1991;SDS011;997;48.448;8.924;2022-11-03T10:06:51;6.27;;;5.73;;
1991;SDS011;997;48.448;8.924;2022-11-03T10:09:18;6.47;;;5.77;;
1991;SDS011;997;48.448;8.924;2022-11-03T10:11:44;7.10;;;5.90;;
1991;SDS011;997;48.448;8.924;2022-11-03T10:14:12;11.60;;;9.27;;
1991;SDS011;997;48.448;8.924;2022-11-03T10:16:40;21.07;;;18.10;;
1991;SDS011;997;48.448;8.924;2022-11-03T10:19:12;11.73;;;10.33;;
1991;SDS011;997;48.448;8.924;2022-11-03T10:21:38;12.53;;;11.33;;
1991;SDS011;997;48.448;8.924;2022-11-03T10:24:05;24.93;;;19.77;;
1991;SDS011;997;48.448;8.924;2022-11-03T10:26:45;7.17;;;6.10;;
1991;SDS011;997;48.448;8.924;2022-11-03T10:29:16;8.67;;;7.17;;
1991;SDS011;997;48.448;8.924;2022-11-03T10:31:53;5.73;;;5.13;;
1991;SDS011;997;48.448;8.924;2022-11-03T10:34:25;7.13;;;6.43;;
1991;SDS011;997;48.448;8.924;2022-11-03T10:39:33;8.80;;;6.13;;
1991;SDS011;997;48.448;8.924;2022-11-03T10:41:59;8.40;;;7.23;;
1991;SDS011;997;48.448;8.924;2022-11-03T10:44:26;8.73;;;8.03;;
1991;SDS011;997;48.448;8.924;2022-11-03T10:47:00;7.87;;;7.17;;
1991;SDS011;997;48.448;8.924;2022-11-03T10:49:31;8.23;;;6.70;;
1991;SDS011;997;48.448;8.924;2022-11-03T10:52:33;6.90;;;6.23;;
1991;SDS011;997;48.448;8.924;2022-11-03T10:54:54;6.40;;;5.80;;
1991;SDS011;997;48.448;8.924;2022-11-03T10:57:22;8.00;;;5.40;;
1991;SDS011;997;48.448;8.924;2022-11-03T10:59:49;7.50;;;5.97;;
1991;SDS011;997;48.448;8.924;2022-11-03T11:02:18;6.23;;;5.73;;
1991;SDS011;997;48.448;8.924;2022-11-03T11:04:46;5.10;;;4.70;;
1991;SDS011;997;48.448;8.924;2022-11-03T11:07:23;5.80;;;5.30;;
1991;SDS011;997;48.448;8.924;2022-11-03T11:12:32;5.43;;;5.03;;
1991;SDS011;997;48.448;8.924;2022-11-03T11:14:59;7.90;;;6.50;;
1991;SDS011;997;48.448;8.924;2022-11-03T11:20:18;4.63;;;4.23;;
1991;SDS011;997;48.448;8.924;2022-11-03T11:22:53;5.77;;;5.23;;
1991;SDS011;997;48.448;8.924;2022-11-03T11:25:19;5.70;;;4.50;;
1991;SDS011;997;48.448;8.924;2022-11-03T11:37:49;6.90;;;4.70;;
1991;SDS011;997;48.448;8.924;2022-11-03T11:48:34;9.50;;;6.93;;
1991;SDS011;997;48.448;8.924;2022-11-03T11:51:00;7.60;;;6.90;;
1991;SDS011;997;48.448;8.924;2022-11-03T11:53:27;8.67;;;7.20;;
1991;SDS011;997;48.448;8.924;2022-11-03T11:56:01;8.63;;;7.80;;
1991;SDS011;997;48.448;8.924;2022-11-03T11:58:37;9.37;;;8.00;;
1991;SDS011;997;48.448;8.924;2022-11-03T12:03:43;9.07;;;8.13;;
1991;SDS011;997;48.448;8.924;2022-11-03T12:06:13;7.43;;;6.83;;
1991;SDS011;997;48.448;8.924;2022-11-03T12:08:40;8.70;;;7.90;;
1991;SDS011;997;48.448;8.924;2022-11-03T12:11:06;7.97;;;7.23;;
1991;SDS011;997;48.448;8.924;2022-11-03T12:13:46;8.13;;;7.40;;
1991;SDS011;997;48.448;8.924;2022-11-03T12:16:34;8.60;;;7.70;;
1991;SDS011;997;48.448;8.924;2022-11-03T12:22:00;10.47;;;7.93;;
1991;SDS011;997;48.448;8.924;2022-11-03T12:26:56;9.97;;;7.80;;
1991;SDS011;997;48.448;8.924;2022-11-03T12:29:26;8.73;;;7.93;;
1991;SDS011;997;48.448;8.924;2022-11-03T12:31:52;8.53;;;7.73;;
1991;SDS011;997;48.448;8.924;2022-11-03T12:34:18;9.43;;;8.50;;
1991;SDS011;997;48.448;8.924;2022-11-03T12:36:44;9.43;;;8.57;;
1991;SDS011;997;48.448;8.924;2022-11-03T12:39:10;7.10;;;6.50;;
1991;SDS011;997;48.448;8.924;2022-11-03T12:41:36;13.03;;;7.80;;
1991;SDS011;997;48.448;8.924;2022-11-03T12:44:02;8.87;;;5.70;;
1991;SDS011;997;48.448;8.924;2022-11-03T12:46:28;7.57;;;6.93;;
1991;SDS011;997;48.448;8.924;2022-11-03T12:48:54;8.00;;;7.20;;
1991;SDS011;997;48.448;8.924;2022-11-03T12:51:20;10.33;;;9.53;;
1991;SDS011;997;48.448;8.924;2022-11-03T12:53:48;11.30;;;10.20;;
1991;SDS011;997;48.448;8.924;2022-11-03T12:56:14;8.30;;;7.60;;
1991;SDS011;997;48.448;8.924;2022-11-03T12:58:41;8.97;;;8.27;;
1991;SDS011;997;48.448;8.924;2022-11-03T13:01:07;7.90;;;7.30;;
1991;SDS011;997;48.448;8.924;2022-11-03T13:03:33;12.47;;;7.63;;
1991;SDS011;997;48.448;8.924;2022-11-03T13:06:00;7.17;;;6.33;;
1991;SDS011;997;48.448;8.924;2022-11-03T13:08:28;20.97;;;14.63;;
1991;SDS011;997;48.448;8.924;2022-11-03T13:10:57;23.53;;;17.13;;
1991;SDS011;997;48.448;8.924;2022-11-03T13:13:23;13.80;;;11.33;;
1991;SDS011;997;48.448;8.924;2022-11-03T13:15:49;10.33;;;8.00;;
1991;SDS011;997;48.448;8.924;2022-11-03T13:18:17;12.93;;;7.30;;
1991;SDS011;997;48.448;8.924;2022-11-03T13:20:44;8.40;;;7.57;;
1991;SDS011;997;48.448;8.924;2022-11-03T13:23:09;9.80;;;8.90;;
1991;SDS011;997;48.448;8.924;2022-11-03T13:25:36;10.47;;;9.20;;
1991;SDS011;997;48.448;8.924;2022-11-03T13:28:01;11.03;;;9.50;;
1991;SDS011;997;48.448;8.924;2022-11-03T13:30:28;10.83;;;9.83;;
1991;SDS011;997;48.448;8.924;2022-11-03T13:32:55;7.67;;;6.97;;
1991;SDS011;997;48.448;8.924;2022-11-03T13:35:20;7.97;;;7.17;;
1991;SDS011;997;48.448;8.924;2022-11-03T13:37:47;8.80;;;8.07;;
1991;SDS011;997;48.448;8.924;2022-11-03T13:40:13;9.67;;;8.83;;
1991;SDS011;997;48.448;8.924;2022-11-03T13:42:39;10.53;;;8.23;;
1991;SDS011;997;48.448;8.924;2022-11-03T13:45:05;8.93;;;8.13;;
1991;SDS011;997;48.448;8.924;2022-11-03T13:47:32;10.50;;;9.10;;
1991;SDS011;997;48.448;8.924;2022-11-03T13:49:58;10.33;;;9.33;;
1991;SDS011;997;48.448;8.924;2022-11-03T13:52:25;8.73;;;7.83;;
1991;SDS011;997;48.448;8.924;2022-11-03T13:54:51;12.93;;;8.50;;
1991;SDS011;997;48.448;8.924;2022-11-03T13:57:17;14.07;;;9.83;;
1991;SDS011;997;48.448;8.924;2022-11-03T13:59:42;6.27;;;5.67;;
1991;SDS011;997;48.448;8.924;2022-11-03T14:02:08;7.43;;;5.57;;
1991;SDS011;997;48.448;8.924;2022-11-03T14:04:34;16.93;;;11.23;;
1991;SDS011;997;48.448;8.924;2022-11-03T14:07:02;11.03;;;9.00;;
1991;SDS011;997;48.448;8.924;2022-11-03T14:09:28;21.00;;;15.30;;
1991;SDS011;997;48.448;8.924;2022-11-03T14:11:54;46.90;;;32.10;;
1991;SDS011;997;48.448;8.924;2022-11-03T14:14:39;64.97;;;49.07;;
1991;SDS011;997;48.448;8.924;2022-11-03T14:17:05;32.03;;;24.03;;
1991;SDS011;997;48.448;8.924;2022-11-03T14:19:30;38.60;;;23.50;;
1991;SDS011;997;48.448;8.924;2022-11-03T14:21:56;39.30;;;31.10;;
1991;SDS011;997;48.448;8.924;2022-11-03T14:24:21;28.07;;;21.43;;
1991;SDS011;997;48.448;8.924;2022-11-03T14:26:47;30.27;;;21.97;;
1991;SDS011;997;48.448;8.924;2022-11-03T14:29:13;22.87;;;18.93;;
1991;SDS011;997;48.448;8.924;2022-11-03T14:31:39;11.93;;;10.30;;
1991;SDS011;997;48.448;8.924;2022-11-03T14:34:04;6.90;;;6.30;;
1991;SDS011;997;48.448;8.924;2022-11-03T14:36:30;12.40;;;8.10;;
1991;SDS011;997;48.448;8.924;2022-11-03T14:38:56;11.30;;;8.70;;
1991;SDS011;997;48.448;8.924;2022-11-03T14:41:21;9.67;;;7.93;;
1991;SDS011;997;48.448;8.924;2022-11-03T14:44:05;13.80;;;9.93;;
1991;SDS011;997;48.448;8.924;2022-11-03T14:46:31;9.87;;;7.27;;
1991;SDS011;997;48.448;8.924;2022-11-03T14:48:57;7.90;;;7.20;;
1991;SDS011;997;48.448;8.924;2022-11-03T14:51:25;21.93;;;15.53;;
1991;SDS011;997;48.448;8.924;2022-11-03T14:53:51;15.40;;;13.90;;
1991;SDS011;997;48.448;8.924;2022-11-03T14:56:17;15.30;;;13.20;;
1991;SDS011;997;48.448;8.924;2022-11-03T14:58:43;14.57;;;13.07;;
1991;SDS011;997;48.448;8.924;2022-11-03T15:01:09;21.37;;;13.87;;
1991;SDS011;997;48.448;8.924;2022-11-03T15:03:34;18.90;;;16.87;;
1991;SDS011;997;48.448;8.924;2022-11-03T15:06:00;25.37;;;22.60;;
1991;SDS011;997;48.448;8.924;2022-11-03T15:08:26;16.33;;;14.73;;
1991;SDS011;997;48.448;8.924;2022-11-03T15:10:53;15.10;;;13.57;;
1991;SDS011;997;48.448;8.924;2022-11-03T15:13:19;20.30;;;16.50;;
1991;SDS011;997;48.448;8.924;2022-11-03T15:15:44;17.90;;;15.27;;
1991;SDS011;997;48.448;8.924;2022-11-03T15:18:10;24.10;;;17.67;;
1991;SDS011;997;48.448;8.924;2022-11-03T15:20:36;23.63;;;17.70;;
1991;SDS011;997;48.448;8.924;2022-11-03T15:23:02;17.30;;;15.10;;
1991;SDS011;997;48.448;8.924;2022-11-03T15:25:29;25.50;;;16.03;;
1991;SDS011;997;48.448;8.924;2022-11-03T15:27:55;28.37;;;20.43;;
1991;SDS011;997;48.448;8.924;2022-11-03T15:30:21;29.10;;;19.47;;
1991;SDS011;997;48.448;8.924;2022-11-03T15:32:46;42.60;;;19.83;;
1991;SDS011;997;48.448;8.924;2022-11-03T15:35:12;25.63;;;18.33;;
1991;SDS011;997;48.448;8.924;2022-11-03T15:37:38;18.10;;;13.17;;
1991;SDS011;997;48.448;8.924;2022-11-03T15:40:04;11.00;;;9.33;;
1991;SDS011;997;48.448;8.924;2022-11-03T15:42:31;13.30;;;8.17;;
1991;SDS011;997;48.448;8.924;2022-11-03T15:44:57;10.40;;;9.33;;
1991;SDS011;997;48.448;8.924;2022-11-03T15:47:23;20.63;;;14.03;;
1991;SDS011;997;48.448;8.924;2022-11-03T15:49:48;14.20;;;12.73;;
1991;SDS011;997;48.448;8.924;2022-11-03T15:52:14;14.97;;;13.40;;
1991;SDS011;997;48.448;8.924;2022-11-03T15:54:40;16.30;;;14.13;;
1991;SDS011;997;48.448;8.924;2022-11-03T15:57:05;16.43;;;14.83;;
1991;SDS011;997;48.448;8.924;2022-11-03T15:59:31;17.97;;;12.77;;
1991;SDS011;997;48.448;8.924;2022-11-03T16:01:56;14.13;;;12.70;;
1991;SDS011;997;48.448;8.924;2022-11-03T16:04:22;19.40;;;14.80;;
1991;SDS011;997;48.448;8.924;2022-11-03T16:06:48;20.17;;;14.90;;
1991;SDS011;997;48.448;8.924;2022-11-03T16:09:14;13.80;;;11.93;;
1991;SDS011;997;48.448;8.924;2022-11-03T16:11:39;28.07;;;22.47;;
1991;SDS011;997;48.448;8.924;2022-11-03T16:14:05;33.77;;;25.60;;
1991;SDS011;997;48.448;8.924;2022-11-03T16:16:31;27.63;;;24.73;;
1991;SDS011;997;48.448;8.924;2022-11-03T16:18:56;24.67;;;22.17;;
1991;SDS011;997;48.448;8.924;2022-11-03T16:21:22;20.50;;;17.23;;
1991;SDS011;997;48.448;8.924;2022-11-03T16:23:48;10.93;;;9.53;;
1991;SDS011;997;48.448;8.924;2022-11-03T16:26:14;13.57;;;10.00;;
1991;SDS011;997;48.448;8.924;2022-11-03T16:28:39;11.60;;;9.93;;
1991;SDS011;997;48.448;8.924;2022-11-03T16:31:05;8.57;;;7.17;;
1991;SDS011;997;48.448;8.924;2022-11-03T16:33:31;6.67;;;5.93;;
1991;SDS011;997;48.448;8.924;2022-11-03T16:35:56;16.37;;;14.30;;
1991;SDS011;997;48.448;8.924;2022-11-03T16:38:22;20.17;;;18.00;;
1991;SDS011;997;48.448;8.924;2022-11-03T16:40:48;14.47;;;12.90;;
1991;SDS011;997;48.448;8.924;2022-11-03T16:43:13;21.07;;;18.60;;
1991;SDS011;997;48.448;8.924;2022-11-03T16:45:39;27.17;;;23.17;;
1991;SDS011;997;48.448;8.924;2022-11-03T16:48:05;20.40;;;18.47;;
1991;SDS011;997;48.448;8.924;2022-11-03T16:50:31;20.60;;;18.43;;
1991;SDS011;997;48.448;8.924;2022-11-03T16:52:57;21.60;;;19.37;;
1991;SDS011;997;48.448;8.924;2022-11-03T16:55:22;18.30;;;16.60;;
1991;SDS011;997;48.448;8.924;2022-11-03T16:57:48;12.30;;;11.10;;
1991;SDS011;997;48.448;8.924;2022-11-03T17:00:15;18.17;;;16.43;;
1991;SDS011;997;48.448;8.924;2022-11-03T17:02:42;19.27;;;17.37;;
1991;SDS011;997;48.448;8.924;2022-11-03T17:05:10;17.97;;;16.03;;
1991;SDS011;997;48.448;8.924;2022-11-03T17:07:36;15.63;;;13.53;;
1991;SDS011;997;48.448;8.924;2022-11-03T17:10:03;18.30;;;16.50;;
1991;SDS011;997;48.448;8.924;2022-11-03T17:12:32;19.57;;;17.60;;
1991;SDS011;997;48.448;8.924;2022-11-03T17:14:58;21.63;;;19.50;;
1991;SDS011;997;48.448;8.924;2022-11-03T17:17:23;26.40;;;23.17;;
1991;SDS011;997;48.448;8.924;2022-11-03T17:19:49;18.20;;;16.27;;
1991;SDS011;997;48.448;8.924;2022-11-03T17:22:15;14.30;;;13.10;;
1991;SDS011;997;48.448;8.924;2022-11-03T17:24:41;24.53;;;17.07;;
1991;SDS011;997;48.448;8.924;2022-11-03T17:29:48;14.00;;;12.47;;
1991;SDS011;997;48.448;8.924;2022-11-03T17:32:23;16.10;;;13.97;;
1991;SDS011;997;48.448;8.924;2022-11-03T17:35:55;13.10;;;11.90;;
1991;SDS011;997;48.448;8.924;2022-11-03T17:38:07;11.20;;;10.30;;
1991;SDS011;997;48.448;8.924;2022-11-03T17:40:38;12.03;;;10.90;;
1991;SDS011;997;48.448;8.924;2022-11-03T17:43:19;11.20;;;9.90;;
1991;SDS011;997;48.448;8.924;2022-11-03T17:45:46;11.40;;;10.30;;
1991;SDS011;997;48.448;8.924;2022-11-03T17:48:12;12.77;;;11.57;;
1991;SDS011;997;48.448;8.924;2022-11-03T17:50:40;11.80;;;10.80;;
1991;SDS011;997;48.448;8.924;2022-11-03T17:53:32;8.10;;;7.40;;
1991;SDS011;997;48.448;8.924;2022-11-03T17:55:58;8.93;;;8.03;;
1991;SDS011;997;48.448;8.924;2022-11-03T17:58:34;11.37;;;10.40;;
1991;SDS011;997;48.448;8.924;2022-11-03T18:01:01;14.00;;;12.60;;
1991;SDS011;997;48.448;8.924;2022-11-03T18:03:28;16.77;;;13.03;;
1991;SDS011;997;48.448;8.924;2022-11-03T18:05:55;18.73;;;16.93;;
1991;SDS011;997;48.448;8.924;2022-11-03T18:08:20;24.40;;;19.67;;
1991;SDS011;997;48.448;8.924;2022-11-03T18:10:47;27.50;;;25.03;;
1991;SDS011;997;48.448;8.924;2022-11-03T18:13:28;21.33;;;19.13;;
1991;SDS011;997;48.448;8.924;2022-11-03T18:16:05;16.17;;;14.70;;
1991;SDS011;997;48.448;8.924;2022-11-03T18:18:35;13.23;;;11.80;;
1991;SDS011;997;48.448;8.924;2022-11-03T18:21:06;12.60;;;11.27;;
1991;SDS011;997;48.448;8.924;2022-11-03T18:23:36;10.57;;;9.47;;
1991;SDS011;997;48.448;8.924;2022-11-03T18:26:02;11.27;;;9.90;;
1991;SDS011;997;48.448;8.924;2022-11-03T18:28:38;9.10;;;8.27;;
1991;SDS011;997;48.448;8.924;2022-11-03T18:31:04;15.10;;;13.70;;
1991;SDS011;997;48.448;8.924;2022-11-03T18:33:40;13.80;;;8.07;;
1991;SDS011;997;48.448;8.924;2022-11-03T18:36:05;9.70;;;8.70;;
1991;SDS011;997;48.448;8.924;2022-11-03T18:38:32;8.93;;;8.23;;
1991;SDS011;997;48.448;8.924;2022-11-03T18:41:00;11.93;;;10.70;;
1991;SDS011;997;48.448;8.924;2022-11-03T18:43:27;12.20;;;11.07;;
1991;SDS011;997;48.448;8.924;2022-11-03T18:45:53;10.37;;;9.50;;
1991;SDS011;997;48.448;8.924;2022-11-03T18:48:19;8.73;;;8.03;;
1991;SDS011;997;48.448;8.924;2022-11-03T18:50:49;10.03;;;9.00;;
1991;SDS011;997;48.448;8.924;2022-11-03T18:53:20;10.90;;;9.80;;
1991;SDS011;997;48.448;8.924;2022-11-03T18:55:48;10.37;;;9.40;;
1991;SDS011;997;48.448;8.924;2022-11-03T18:58:18;9.23;;;8.43;;
1991;SDS011;997;48.448;8.924;2022-11-03T19:00:46;9.67;;;8.67;;
1991;SDS011;997;48.448;8.924;2022-11-03T19:03:15;9.30;;;8.50;;
1991;SDS011;997;48.448;8.924;2022-11-03T19:05:43;8.17;;;7.37;;
1991;SDS011;997;48.448;8.924;2022-11-03T19:08:26;7.73;;;7.13;;
1991;SDS011;997;48.448;8.924;2022-11-03T19:10:54;8.10;;;7.30;;
1991;SDS011;997;48.448;8.924;2022-11-03T19:13:28;9.03;;;8.03;;
1991;SDS011;997;48.448;8.924;2022-11-03T19:15:58;7.87;;;6.97;;
1991;SDS011;997;48.448;8.924;2022-11-03T19:18:25;14.00;;;9.53;;
1991;SDS011;997;48.448;8.924;2022-11-03T19:20:52;9.17;;;8.37;;
1991;SDS011;997;48.448;8.924;2022-11-03T19:23:18;15.37;;;13.40;;
1991;SDS011;997;48.448;8.924;2022-11-03T19:25:43;22.70;;;20.30;;
1991;SDS011;997;48.448;8.924;2022-11-03T19:28:13;17.70;;;16.00;;
1991;SDS011;997;48.448;8.924;2022-11-03T19:30:44;16.93;;;15.23;;
1991;SDS011;997;48.448;8.924;2022-11-03T19:33:17;13.73;;;12.43;;
1991;SDS011;997;48.448;8.924;2022-11-03T19:35:45;12.47;;;11.10;;
1991;SDS011;997;48.448;8.924;2022-11-03T19:38:12;12.37;;;10.50;;
1991;SDS011;997;48.448;8.924;2022-11-03T19:40:40;14.17;;;12.83;;
1991;SDS011;997;48.448;8.924;2022-11-03T19:43:29;13.83;;;12.60;;
1991;SDS011;997;48.448;8.924;2022-11-03T19:45:55;11.50;;;10.40;;
1991;SDS011;997;48.448;8.924;2022-11-03T19:48:21;12.90;;;8.20;;
1991;SDS011;997;48.448;8.924;2022-11-03T19:50:47;8.90;;;8.20;;
1991;SDS011;997;48.448;8.924;2022-11-03T19:53:23;7.77;;;7.17;;
1991;SDS011;997;48.448;8.924;2022-11-03T19:55:52;9.63;;;8.73;;
1991;SDS011;997;48.448;8.924;2022-11-03T19:58:20;8.33;;;7.53;;
1991;SDS011;997;48.448;8.924;2022-11-03T20:00:47;9.40;;;8.50;;
1991;SDS011;997;48.448;8.924;2022-11-03T20:03:14;11.63;;;10.43;;
1991;SDS011;997;48.448;8.924;2022-11-03T20:05:40;9.83;;;8.83;;
1991;SDS011;997;48.448;8.924;2022-11-03T20:08:10;8.60;;;7.80;;
1991;SDS011;997;48.448;8.924;2022-11-03T20:10:39;8.63;;;7.73;;
1991;SDS011;997;48.448;8.924;2022-11-03T20:13:04;12.90;;;11.70;;
1991;SDS011;997;48.448;8.924;2022-11-03T20:15:32;12.20;;;11.20;;
1991;SDS011;997;48.448;8.924;2022-11-03T20:17:58;40.77;;;33.60;;
1991;SDS011;997;48.448;8.924;2022-11-03T20:20:23;60.90;;;49.07;;
1991;SDS011;997;48.448;8.924;2022-11-03T20:22:56;22.50;;;18.40;;
1991;SDS011;997;48.448;8.924;2022-11-03T20:25:24;15.60;;;14.10;;
1991;SDS011;997;48.448;8.924;2022-11-03T20:27:52;20.90;;;15.47;;
1991;SDS011;997;48.448;8.924;2022-11-03T20:30:20;15.97;;;14.27;;